sensor_id;sensor_type;location;lat;lon;timestamp;P1;durP1;ratioP1;P2;durP2;ratioP2
9208;SDS011;4639;48.862;9.188;2023-05-21T00:01:36;14.80;;;13.40;;
9208;SDS011;4639;48.862;9.188;2023-05-21T00:04:03;15.88;;;13.68;;
9208;SDS011;4639;48.862;9.188;2023-05-21T00:06:31;14.75;;;13.25;;
9208;SDS011;4639;48.862;9.188;2023-05-21T00:09:03;15.95;;;14.45;;
9208;SDS011;4639;48.862;9.188;2023-05-21T00:11:29;15.82;;;14.32;;
9208;SDS011;4639;48.862;9.188;2023-05-21T00:13:55;17.30;;;14.48;;
9208;SDS011;4639;48.862;9.188;2023-05-21T00:16:21;15.93;;;14.32;;
9208;SDS011;4639;48.862;9.188;2023-05-21T00:18:47;15.52;;;13.93;;
9208;SDS011;4639;48.862;9.188;2023-05-21T00:21:14;15.70;;;13.98;;
9208;SDS011;4639;48.862;9.188;2023-05-21T00:23:46;15.80;;;14.35;;
9208;SDS011;4639;48.862;9.188;2023-05-21T00:26:15;16.55;;;14.23;;
9208;SDS011;4639;48.862;9.188;2023-05-21T00:28:41;23.15;;;15.07;;
9208;SDS011;4639;48.862;9.188;2023-05-21T00:31:07;17.50;;;15.57;;
9208;SDS011;4639;48.862;9.188;2023-05-21T00:33:32;19.40;;;15.52;;
9208;SDS011;4639;48.862;9.188;2023-05-21T00:35:58;19.77;;;14.88;;
9208;SDS011;4639;48.862;9.188;2023-05-21T00:38:23;16.92;;;15.07;;
9208;SDS011;4639;48.862;9.188;2023-05-21T00:40:51;15.88;;;14.38;;
9208;SDS011;4639;48.862;9.188;2023-05-21T00:43:17;17.90;;;15.23;;
9208;SDS011;4639;48.862;9.188;2023-05-21T00:45:43;16.70;;;15.00;;
9208;SDS011;4639;48.862;9.188;2023-05-21T00:48:10;15.48;;;14.05;;
9208;SDS011;4639;48.862;9.188;2023-05-21T00:50:37;16.63;;;15.02;;
9208;SDS011;4639;48.862;9.188;2023-05-21T00:53:06;18.63;;;15.20;;
9208;SDS011;4639;48.862;9.188;2023-05-21T00:55:37;16.58;;;15.05;;
9208;SDS011;4639;48.862;9.188;2023-05-21T00:58:04;18.08;;;16.17;;
9208;SDS011;4639;48.862;9.188;2023-05-21T01:00:34;19.27;;;15.57;;
9208;SDS011;4639;48.862;9.188;2023-05-21T01:03:01;18.23;;;16.38;;
9208;SDS011;4639;48.862;9.188;2023-05-21T01:05:28;18.67;;;16.70;;
9208;SDS011;4639;48.862;9.188;2023-05-21T01:07:54;18.55;;;16.73;;
9208;SDS011;4639;48.862;9.188;2023-05-21T01:10:22;18.92;;;17.05;;
9208;SDS011;4639;48.862;9.188;2023-05-21T01:12:48;17.65;;;16.05;;
9208;SDS011;4639;48.862;9.188;2023-05-21T01:15:16;20.05;;;17.73;;
9208;SDS011;4639;48.862;9.188;2023-05-21T01:17:42;19.65;;;17.58;;
9208;SDS011;4639;48.862;9.188;2023-05-21T01:20:12;19.38;;;17.58;;
9208;SDS011;4639;48.862;9.188;2023-05-21T01:22:52;18.92;;;17.13;;
9208;SDS011;4639;48.862;9.188;2023-05-21T01:25:18;18.95;;;17.05;;
9208;SDS011;4639;48.862;9.188;2023-05-21T01:27:44;20.02;;;17.95;;
9208;SDS011;4639;48.862;9.188;2023-05-21T01:30:10;20.55;;;18.00;;
9208;SDS011;4639;48.862;9.188;2023-05-21T01:35:10;19.48;;;17.45;;
9208;SDS011;4639;48.862;9.188;2023-05-21T01:37:42;18.35;;;16.65;;
9208;SDS011;4639;48.862;9.188;2023-05-21T01:40:24;19.13;;;17.23;;
9208;SDS011;4639;48.862;9.188;2023-05-21T01:42:59;18.75;;;16.83;;
9208;SDS011;4639;48.862;9.188;2023-05-21T01:45:27;19.75;;;17.80;;
9208;SDS011;4639;48.862;9.188;2023-05-21T01:47:55;20.50;;;18.40;;
9208;SDS011;4639;48.862;9.188;2023-05-21T01:50:22;20.17;;;18.05;;
9208;SDS011;4639;48.862;9.188;2023-05-21T01:52:52;18.77;;;16.77;;
9208;SDS011;4639;48.862;9.188;2023-05-21T01:55:19;19.65;;;17.77;;
9208;SDS011;4639;48.862;9.188;2023-05-21T01:57:52;19.90;;;17.23;;
9208;SDS011;4639;48.862;9.188;2023-05-21T02:00:19;20.45;;;18.27;;
9208;SDS011;4639;48.862;9.188;2023-05-21T02:02:46;23.27;;;18.45;;
9208;SDS011;4639;48.862;9.188;2023-05-21T02:05:12;20.45;;;18.35;;
9208;SDS011;4639;48.862;9.188;2023-05-21T02:07:38;20.33;;;18.40;;
9208;SDS011;4639;48.862;9.188;2023-05-21T02:10:04;19.90;;;17.85;;
9208;SDS011;4639;48.862;9.188;2023-05-21T02:12:30;19.85;;;17.77;;
9208;SDS011;4639;48.862;9.188;2023-05-21T02:14:56;20.05;;;18.00;;
9208;SDS011;4639;48.862;9.188;2023-05-21T02:17:21;21.27;;;18.33;;
9208;SDS011;4639;48.862;9.188;2023-05-21T02:19:48;20.63;;;18.42;;
9208;SDS011;4639;48.862;9.188;2023-05-21T02:22:14;20.15;;;17.90;;
9208;SDS011;4639;48.862;9.188;2023-05-21T02:24:39;20.80;;;18.60;;
9208;SDS011;4639;48.862;9.188;2023-05-21T02:27:05;19.75;;;17.77;;
9208;SDS011;4639;48.862;9.188;2023-05-21T02:29:31;23.42;;;19.08;;
9208;SDS011;4639;48.862;9.188;2023-05-21T02:31:57;20.83;;;18.73;;
9208;SDS011;4639;48.862;9.188;2023-05-21T02:34:22;21.05;;;18.90;;
9208;SDS011;4639;48.862;9.188;2023-05-21T02:36:48;22.73;;;19.38;;
9208;SDS011;4639;48.862;9.188;2023-05-21T02:39:17;21.33;;;19.27;;
9208;SDS011;4639;48.862;9.188;2023-05-21T02:41:44;21.45;;;19.20;;
9208;SDS011;4639;48.862;9.188;2023-05-21T02:44:10;21.35;;;19.25;;
9208;SDS011;4639;48.862;9.188;2023-05-21T02:46:36;22.50;;;19.98;;
9208;SDS011;4639;48.862;9.188;2023-05-21T02:49:02;20.98;;;18.77;;
9208;SDS011;4639;48.862;9.188;2023-05-21T02:51:27;20.85;;;18.75;;
9208;SDS011;4639;48.862;9.188;2023-05-21T02:53:53;21.67;;;19.33;;
9208;SDS011;4639;48.862;9.188;2023-05-21T02:56:18;22.05;;;19.88;;
9208;SDS011;4639;48.862;9.188;2023-05-21T02:58:44;21.95;;;19.77;;
9208;SDS011;4639;48.862;9.188;2023-05-21T03:01:09;21.42;;;19.27;;
9208;SDS011;4639;48.862;9.188;2023-05-21T03:03:35;21.38;;;19.20;;
9208;SDS011;4639;48.862;9.188;2023-05-21T03:06:01;21.83;;;19.58;;
9208;SDS011;4639;48.862;9.188;2023-05-21T03:08:26;22.10;;;19.98;;
9208;SDS011;4639;48.862;9.188;2023-05-21T03:10:52;22.02;;;19.70;;
9208;SDS011;4639;48.862;9.188;2023-05-21T03:13:17;21.60;;;18.85;;
9208;SDS011;4639;48.862;9.188;2023-05-21T03:15:43;21.92;;;19.70;;
9208;SDS011;4639;48.862;9.188;2023-05-21T03:18:10;20.50;;;18.50;;
9208;SDS011;4639;48.862;9.188;2023-05-21T03:20:36;20.88;;;18.88;;
9208;SDS011;4639;48.862;9.188;2023-05-21T03:23:07;21.80;;;18.77;;
9208;SDS011;4639;48.862;9.188;2023-05-21T03:25:33;22.13;;;19.30;;
9208;SDS011;4639;48.862;9.188;2023-05-21T03:28:00;21.52;;;19.23;;
9208;SDS011;4639;48.862;9.188;2023-05-21T03:30:26;21.73;;;19.60;;
9208;SDS011;4639;48.862;9.188;2023-05-21T03:32:51;21.70;;;19.45;;
9208;SDS011;4639;48.862;9.188;2023-05-21T03:35:17;21.42;;;19.30;;
9208;SDS011;4639;48.862;9.188;2023-05-21T03:37:43;23.30;;;19.27;;
9208;SDS011;4639;48.862;9.188;2023-05-21T03:40:08;22.15;;;19.98;;
9208;SDS011;4639;48.862;9.188;2023-05-21T03:42:35;20.92;;;18.85;;
9208;SDS011;4639;48.862;9.188;2023-05-21T03:45:02;23.30;;;19.50;;
9208;SDS011;4639;48.862;9.188;2023-05-21T03:47:27;22.33;;;20.15;;
9208;SDS011;4639;48.862;9.188;2023-05-21T03:49:53;22.92;;;20.63;;
9208;SDS011;4639;48.862;9.188;2023-05-21T03:52:19;21.38;;;19.27;;
9208;SDS011;4639;48.862;9.188;2023-05-21T03:54:44;23.00;;;20.55;;
9208;SDS011;4639;48.862;9.188;2023-05-21T03:57:10;21.88;;;19.27;;
9208;SDS011;4639;48.862;9.188;2023-05-21T03:59:35;21.67;;;19.45;;
9208;SDS011;4639;48.862;9.188;2023-05-21T04:02:02;21.83;;;18.85;;
9208;SDS011;4639;48.862;9.188;2023-05-21T04:04:27;21.48;;;19.27;;
9208;SDS011;4639;48.862;9.188;2023-05-21T04:06:53;21.40;;;19.30;;
9208;SDS011;4639;48.862;9.188;2023-05-21T04:09:19;22.25;;;20.08;;
9208;SDS011;4639;48.862;9.188;2023-05-21T04:11:45;22.95;;;20.45;;
9208;SDS011;4639;48.862;9.188;2023-05-21T04:14:11;22.58;;;20.27;;
9208;SDS011;4639;48.862;9.188;2023-05-21T04:16:37;21.92;;;19.73;;
9208;SDS011;4639;48.862;9.188;2023-05-21T04:19:03;21.77;;;19.52;;
9208;SDS011;4639;48.862;9.188;2023-05-21T04:21:30;21.88;;;19.67;;
9208;SDS011;4639;48.862;9.188;2023-05-21T04:23:56;23.67;;;21.27;;
9208;SDS011;4639;48.862;9.188;2023-05-21T04:26:22;22.63;;;20.05;;
9208;SDS011;4639;48.862;9.188;2023-05-21T04:28:49;22.38;;;20.05;;
9208;SDS011;4639;48.862;9.188;2023-05-21T04:31:15;25.27;;;20.67;;
9208;SDS011;4639;48.862;9.188;2023-05-21T04:33:40;22.67;;;20.23;;
9208;SDS011;4639;48.862;9.188;2023-05-21T04:36:09;22.38;;;20.17;;
9208;SDS011;4639;48.862;9.188;2023-05-21T04:38:35;23.42;;;20.95;;
9208;SDS011;4639;48.862;9.188;2023-05-21T04:41:02;22.75;;;20.35;;
9208;SDS011;4639;48.862;9.188;2023-05-21T04:43:28;22.27;;;19.98;;
9208;SDS011;4639;48.862;9.188;2023-05-21T04:45:54;22.90;;;20.63;;
9208;SDS011;4639;48.862;9.188;2023-05-21T04:48:20;22.90;;;20.58;;
9208;SDS011;4639;48.862;9.188;2023-05-21T04:50:48;22.33;;;20.15;;
9208;SDS011;4639;48.862;9.188;2023-05-21T04:53:14;22.70;;;20.40;;
9208;SDS011;4639;48.862;9.188;2023-05-21T04:55:40;23.90;;;19.30;;
9208;SDS011;4639;48.862;9.188;2023-05-21T04:58:06;21.42;;;19.23;;
9208;SDS011;4639;48.862;9.188;2023-05-21T05:00:32;22.38;;;20.05;;
9208;SDS011;4639;48.862;9.188;2023-05-21T05:02:58;22.63;;;20.42;;
9208;SDS011;4639;48.862;9.188;2023-05-21T05:05:24;23.17;;;20.83;;
9208;SDS011;4639;48.862;9.188;2023-05-21T05:07:49;21.55;;;19.27;;
9208;SDS011;4639;48.862;9.188;2023-05-21T05:10:15;22.10;;;19.80;;
9208;SDS011;4639;48.862;9.188;2023-05-21T05:12:41;21.35;;;19.25;;
9208;SDS011;4639;48.862;9.188;2023-05-21T05:15:06;21.27;;;19.00;;
9208;SDS011;4639;48.862;9.188;2023-05-21T05:17:32;22.98;;;20.50;;
9208;SDS011;4639;48.862;9.188;2023-05-21T05:19:59;22.27;;;19.95;;
9208;SDS011;4639;48.862;9.188;2023-05-21T05:22:25;22.38;;;20.20;;
9208;SDS011;4639;48.862;9.188;2023-05-21T05:24:50;21.95;;;19.65;;
9208;SDS011;4639;48.862;9.188;2023-05-21T05:27:16;22.98;;;20.63;;
9208;SDS011;4639;48.862;9.188;2023-05-21T05:29:42;20.95;;;18.80;;
9208;SDS011;4639;48.862;9.188;2023-05-21T05:32:08;23.45;;;21.05;;
9208;SDS011;4639;48.862;9.188;2023-05-21T05:34:34;23.20;;;20.80;;
9208;SDS011;4639;48.862;9.188;2023-05-21T05:37:00;22.65;;;20.30;;
9208;SDS011;4639;48.862;9.188;2023-05-21T05:39:26;23.17;;;20.67;;
9208;SDS011;4639;48.862;9.188;2023-05-21T05:41:52;21.30;;;19.10;;
9208;SDS011;4639;48.862;9.188;2023-05-21T05:44:18;21.85;;;19.70;;
9208;SDS011;4639;48.862;9.188;2023-05-21T05:46:43;21.80;;;19.60;;
9208;SDS011;4639;48.862;9.188;2023-05-21T05:49:09;22.27;;;20.00;;
9208;SDS011;4639;48.862;9.188;2023-05-21T05:51:34;22.20;;;20.00;;
9208;SDS011;4639;48.862;9.188;2023-05-21T05:54:01;22.80;;;19.77;;
9208;SDS011;4639;48.862;9.188;2023-05-21T05:56:26;21.45;;;19.25;;
9208;SDS011;4639;48.862;9.188;2023-05-21T05:58:52;21.40;;;19.30;;
9208;SDS011;4639;48.862;9.188;2023-05-21T06:01:18;21.33;;;19.23;;
9208;SDS011;4639;48.862;9.188;2023-05-21T06:03:43;22.50;;;19.80;;
9208;SDS011;4639;48.862;9.188;2023-05-21T06:06:09;23.67;;;18.98;;
9208;SDS011;4639;48.862;9.188;2023-05-21T06:08:35;22.63;;;20.23;;
9208;SDS011;4639;48.862;9.188;2023-05-21T06:11:01;21.17;;;19.02;;
9208;SDS011;4639;48.862;9.188;2023-05-21T06:13:27;20.27;;;18.38;;
9208;SDS011;4639;48.862;9.188;2023-05-21T06:15:53;21.52;;;19.33;;
9208;SDS011;4639;48.862;9.188;2023-05-21T06:18:18;22.27;;;19.98;;
9208;SDS011;4639;48.862;9.188;2023-05-21T06:20:45;20.73;;;18.55;;
9208;SDS011;4639;48.862;9.188;2023-05-21T06:23:10;24.20;;;18.80;;
9208;SDS011;4639;48.862;9.188;2023-05-21T06:25:36;20.88;;;18.88;;
9208;SDS011;4639;48.862;9.188;2023-05-21T06:28:02;21.98;;;19.35;;
9208;SDS011;4639;48.862;9.188;2023-05-21T06:30:27;22.48;;;20.10;;
9208;SDS011;4639;48.862;9.188;2023-05-21T06:32:53;20.85;;;18.63;;
9208;SDS011;4639;48.862;9.188;2023-05-21T06:35:18;22.05;;;19.95;;
9208;SDS011;4639;48.862;9.188;2023-05-21T06:37:44;21.30;;;19.23;;
9208;SDS011;4639;48.862;9.188;2023-05-21T06:40:10;21.40;;;19.30;;
9208;SDS011;4639;48.862;9.188;2023-05-21T06:42:36;23.10;;;20.35;;
9208;SDS011;4639;48.862;9.188;2023-05-21T06:45:01;21.08;;;18.88;;
9208;SDS011;4639;48.862;9.188;2023-05-21T06:47:27;20.90;;;18.83;;
9208;SDS011;4639;48.862;9.188;2023-05-21T06:49:52;20.67;;;18.65;;
9208;SDS011;4639;48.862;9.188;2023-05-21T06:52:18;20.23;;;18.17;;
9208;SDS011;4639;48.862;9.188;2023-05-21T06:54:43;20.42;;;18.30;;
9208;SDS011;4639;48.862;9.188;2023-05-21T06:57:09;19.50;;;17.52;;
9208;SDS011;4639;48.862;9.188;2023-05-21T06:59:35;19.90;;;17.98;;
9208;SDS011;4639;48.862;9.188;2023-05-21T07:02:00;20.98;;;18.42;;
9208;SDS011;4639;48.862;9.188;2023-05-21T07:04:26;19.38;;;17.52;;
9208;SDS011;4639;48.862;9.188;2023-05-21T07:06:52;19.65;;;17.55;;
9208;SDS011;4639;48.862;9.188;2023-05-21T07:09:18;18.38;;;16.58;;
9208;SDS011;4639;48.862;9.188;2023-05-21T07:11:44;18.77;;;17.00;;
9208;SDS011;4639;48.862;9.188;2023-05-21T07:14:09;17.38;;;15.77;;
9208;SDS011;4639;48.862;9.188;2023-05-21T07:16:35;17.75;;;16.10;;
9208;SDS011;4639;48.862;9.188;2023-05-21T07:19:00;17.33;;;15.70;;
9208;SDS011;4639;48.862;9.188;2023-05-21T07:21:26;16.58;;;14.98;;
9208;SDS011;4639;48.862;9.188;2023-05-21T07:23:51;17.77;;;15.90;;
9208;SDS011;4639;48.862;9.188;2023-05-21T07:26:17;16.58;;;14.90;;
9208;SDS011;4639;48.862;9.188;2023-05-21T07:28:42;17.08;;;15.27;;
9208;SDS011;4639;48.862;9.188;2023-05-21T07:31:09;17.33;;;15.73;;
9208;SDS011;4639;48.862;9.188;2023-05-21T07:33:36;18.27;;;14.95;;
9208;SDS011;4639;48.862;9.188;2023-05-21T07:36:01;15.55;;;14.10;;
9208;SDS011;4639;48.862;9.188;2023-05-21T07:38:27;16.58;;;13.82;;
9208;SDS011;4639;48.862;9.188;2023-05-21T07:40:53;15.23;;;13.73;;
9208;SDS011;4639;48.862;9.188;2023-05-21T07:43:19;17.50;;;13.55;;
9208;SDS011;4639;48.862;9.188;2023-05-21T07:45:44;15.30;;;12.70;;
9208;SDS011;4639;48.862;9.188;2023-05-21T07:48:10;13.63;;;12.32;;
9208;SDS011;4639;48.862;9.188;2023-05-21T07:50:35;13.23;;;11.93;;
9208;SDS011;4639;48.862;9.188;2023-05-21T07:53:01;13.18;;;11.88;;
9208;SDS011;4639;48.862;9.188;2023-05-21T07:55:27;12.80;;;11.50;;
9208;SDS011;4639;48.862;9.188;2023-05-21T07:57:53;12.30;;;10.68;;
9208;SDS011;4639;48.862;9.188;2023-05-21T08:00:18;12.25;;;11.15;;
9208;SDS011;4639;48.862;9.188;2023-05-21T08:02:47;11.50;;;10.50;;
9208;SDS011;4639;48.862;9.188;2023-05-21T08:05:12;12.27;;;11.10;;
9208;SDS011;4639;48.862;9.188;2023-05-21T08:07:40;12.88;;;11.57;;
9208;SDS011;4639;48.862;9.188;2023-05-21T08:10:05;12.27;;;11.18;;
9208;SDS011;4639;48.862;9.188;2023-05-21T08:12:32;11.98;;;10.77;;
9208;SDS011;4639;48.862;9.188;2023-05-21T08:14:58;12.80;;;11.00;;
9208;SDS011;4639;48.862;9.188;2023-05-21T08:17:24;11.32;;;10.13;;
9208;SDS011;4639;48.862;9.188;2023-05-21T08:19:49;11.48;;;10.32;;
9208;SDS011;4639;48.862;9.188;2023-05-21T08:22:15;10.50;;;9.50;;
9208;SDS011;4639;48.862;9.188;2023-05-21T08:24:42;10.80;;;9.70;;
9208;SDS011;4639;48.862;9.188;2023-05-21T08:27:07;10.32;;;9.43;;
9208;SDS011;4639;48.862;9.188;2023-05-21T08:29:33;10.98;;;9.95;;
9208;SDS011;4639;48.862;9.188;2023-05-21T08:31:59;11.13;;;9.95;;
9208;SDS011;4639;48.862;9.188;2023-05-21T08:34:24;11.55;;;10.45;;
9208;SDS011;4639;48.862;9.188;2023-05-21T08:36:50;9.95;;;8.95;;
9208;SDS011;4639;48.862;9.188;2023-05-21T08:39:17;10.73;;;9.63;;
9208;SDS011;4639;48.862;9.188;2023-05-21T08:41:43;11.20;;;10.10;;
9208;SDS011;4639;48.862;9.188;2023-05-21T08:44:13;9.68;;;8.65;;
9208;SDS011;4639;48.862;9.188;2023-05-21T08:46:42;9.25;;;8.40;;
9208;SDS011;4639;48.862;9.188;2023-05-21T08:49:13;11.52;;;9.18;;
9208;SDS011;4639;48.862;9.188;2023-05-21T08:51:42;10.00;;;9.00;;
9208;SDS011;4639;48.862;9.188;2023-05-21T08:54:09;9.98;;;8.50;;
9208;SDS011;4639;48.862;9.188;2023-05-21T08:56:37;11.00;;;9.40;;
9208;SDS011;4639;48.862;9.188;2023-05-21T08:59:09;10.20;;;9.23;;
9208;SDS011;4639;48.862;9.188;2023-05-21T09:01:35;9.82;;;8.82;;
9208;SDS011;4639;48.862;9.188;2023-05-21T09:04:02;10.05;;;9.02;;
9208;SDS011;4639;48.862;9.188;2023-05-21T09:06:28;9.75;;;8.73;;
9208;SDS011;4639;48.862;9.188;2023-05-21T09:09:05;11.52;;;9.23;;
9208;SDS011;4639;48.862;9.188;2023-05-21T09:11:49;11.55;;;9.00;;
9208;SDS011;4639;48.862;9.188;2023-05-21T09:14:14;10.05;;;9.05;;
9208;SDS011;4639;48.862;9.188;2023-05-21T09:16:41;9.23;;;8.32;;
9208;SDS011;4639;48.862;9.188;2023-05-21T09:19:06;8.82;;;8.00;;
9208;SDS011;4639;48.862;9.188;2023-05-21T09:21:32;11.05;;;8.32;;
9208;SDS011;4639;48.862;9.188;2023-05-21T09:23:58;9.20;;;8.30;;
9208;SDS011;4639;48.862;9.188;2023-05-21T09:26:25;10.05;;;7.95;;
9208;SDS011;4639;48.862;9.188;2023-05-21T09:28:54;11.25;;;8.77;;
9208;SDS011;4639;48.862;9.188;2023-05-21T09:31:24;9.18;;;8.27;;
9208;SDS011;4639;48.862;9.188;2023-05-21T09:33:53;9.15;;;8.25;;
9208;SDS011;4639;48.862;9.188;2023-05-21T09:36:19;8.52;;;7.72;;
9208;SDS011;4639;48.862;9.188;2023-05-21T09:38:51;9.57;;;8.65;;
9208;SDS011;4639;48.862;9.188;2023-05-21T09:41:17;9.13;;;8.23;;
9208;SDS011;4639;48.862;9.188;2023-05-21T09:43:43;10.43;;;8.57;;
9208;SDS011;4639;48.862;9.188;2023-05-21T09:46:09;8.73;;;7.90;;
9208;SDS011;4639;48.862;9.188;2023-05-21T09:48:36;9.05;;;8.02;;
9208;SDS011;4639;48.862;9.188;2023-05-21T09:51:21;8.52;;;7.78;;
9208;SDS011;4639;48.862;9.188;2023-05-21T09:56:13;9.77;;;7.47;;
9208;SDS011;4639;48.862;9.188;2023-05-21T09:58:39;8.85;;;7.90;;
9208;SDS011;4639;48.862;9.188;2023-05-21T10:01:05;9.40;;;8.45;;
9208;SDS011;4639;48.862;9.188;2023-05-21T10:03:31;9.15;;;6.97;;
9208;SDS011;4639;48.862;9.188;2023-05-21T10:06:00;8.05;;;7.25;;
9208;SDS011;4639;48.862;9.188;2023-05-21T10:08:26;8.05;;;7.32;;
9208;SDS011;4639;48.862;9.188;2023-05-21T10:10:55;8.15;;;7.35;;
9208;SDS011;4639;48.862;9.188;2023-05-21T10:13:20;8.70;;;7.90;;
9208;SDS011;4639;48.862;9.188;2023-05-21T10:15:50;8.45;;;7.05;;
9208;SDS011;4639;48.862;9.188;2023-05-21T10:18:23;8.60;;;7.72;;
9208;SDS011;4639;48.862;9.188;2023-05-21T10:20:49;8.13;;;7.32;;
9208;SDS011;4639;48.862;9.188;2023-05-21T10:23:16;8.10;;;7.10;;
9208;SDS011;4639;48.862;9.188;2023-05-21T10:25:43;8.13;;;7.32;;
9208;SDS011;4639;48.862;9.188;2023-05-21T10:28:10;7.47;;;6.78;;
9208;SDS011;4639;48.862;9.188;2023-05-21T10:30:41;7.97;;;7.18;;
9208;SDS011;4639;48.862;9.188;2023-05-21T10:33:07;8.48;;;7.55;;
9208;SDS011;4639;48.862;9.188;2023-05-21T10:35:33;9.52;;;7.20;;
9208;SDS011;4639;48.862;9.188;2023-05-21T10:37:59;10.07;;;6.50;;
9208;SDS011;4639;48.862;9.188;2023-05-21T10:40:27;7.35;;;6.38;;
9208;SDS011;4639;48.862;9.188;2023-05-21T10:43:09;7.20;;;6.60;;
9208;SDS011;4639;48.862;9.188;2023-05-21T10:45:52;7.75;;;6.90;;
9208;SDS011;4639;48.862;9.188;2023-05-21T10:59:46;7.40;;;6.70;;
9208;SDS011;4639;48.862;9.188;2023-05-21T11:02:12;6.88;;;6.28;;
9208;SDS011;4639;48.862;9.188;2023-05-21T11:04:40;8.77;;;6.20;;
9208;SDS011;4639;48.862;9.188;2023-05-21T11:07:09;6.97;;;6.00;;
9208;SDS011;4639;48.862;9.188;2023-05-21T11:09:39;7.30;;;6.60;;
9208;SDS011;4639;48.862;9.188;2023-05-21T11:12:05;7.32;;;6.63;;
9208;SDS011;4639;48.862;9.188;2023-05-21T11:14:34;6.65;;;6.05;;
9208;SDS011;4639;48.862;9.188;2023-05-21T11:17:11;6.85;;;6.15;;
9208;SDS011;4639;48.862;9.188;2023-05-21T11:19:41;7.32;;;6.45;;
9208;SDS011;4639;48.862;9.188;2023-05-21T11:22:30;6.25;;;5.75;;
9208;SDS011;4639;48.862;9.188;2023-05-21T11:25:00;6.45;;;5.85;;
9208;SDS011;4639;48.862;9.188;2023-05-21T11:27:33;6.53;;;5.90;;
9208;SDS011;4639;48.862;9.188;2023-05-21T11:30:02;6.32;;;5.82;;
9208;SDS011;4639;48.862;9.188;2023-05-21T11:32:29;7.63;;;6.30;;
9208;SDS011;4639;48.862;9.188;2023-05-21T11:34:55;6.43;;;5.82;;
9208;SDS011;4639;48.862;9.188;2023-05-21T11:37:26;6.30;;;5.80;;
9208;SDS011;4639;48.862;9.188;2023-05-21T11:39:54;8.35;;;6.32;;
9208;SDS011;4639;48.862;9.188;2023-05-21T11:44:55;8.93;;;6.07;;
9208;SDS011;4639;48.862;9.188;2023-05-21T11:47:23;6.75;;;6.18;;
9208;SDS011;4639;48.862;9.188;2023-05-21T11:49:50;6.15;;;5.63;;
9208;SDS011;4639;48.862;9.188;2023-05-21T11:52:16;6.50;;;5.90;;
9208;SDS011;4639;48.862;9.188;2023-05-21T11:54:44;6.63;;;5.85;;
9208;SDS011;4639;48.862;9.188;2023-05-21T11:57:12;8.02;;;6.50;;
9208;SDS011;4639;48.862;9.188;2023-05-21T11:59:52;6.93;;;6.15;;
9208;SDS011;4639;48.862;9.188;2023-05-21T12:02:18;6.75;;;6.05;;
9208;SDS011;4639;48.862;9.188;2023-05-21T12:04:45;6.25;;;5.68;;
9208;SDS011;4639;48.862;9.188;2023-05-21T12:07:16;7.15;;;6.10;;
9208;SDS011;4639;48.862;9.188;2023-05-21T12:12:19;6.50;;;5.80;;
9208;SDS011;4639;48.862;9.188;2023-05-21T12:14:49;6.82;;;5.63;;
9208;SDS011;4639;48.862;9.188;2023-05-21T12:17:17;6.50;;;5.90;;
9208;SDS011;4639;48.862;9.188;2023-05-21T12:19:44;6.35;;;5.85;;
9208;SDS011;4639;48.862;9.188;2023-05-21T12:22:10;7.03;;;5.53;;
9208;SDS011;4639;48.862;9.188;2023-05-21T12:24:37;9.05;;;5.75;;
9208;SDS011;4639;48.862;9.188;2023-05-21T12:27:04;9.18;;;5.60;;
9208;SDS011;4639;48.862;9.188;2023-05-21T12:29:34;6.00;;;5.32;;
9208;SDS011;4639;48.862;9.188;2023-05-21T12:32:02;8.07;;;5.35;;
9208;SDS011;4639;48.862;9.188;2023-05-21T12:34:36;7.03;;;5.43;;
9208;SDS011;4639;48.862;9.188;2023-05-21T12:37:10;5.43;;;4.93;;
9208;SDS011;4639;48.862;9.188;2023-05-21T12:39:39;6.20;;;5.60;;
9208;SDS011;4639;48.862;9.188;2023-05-21T12:42:08;6.50;;;5.57;;
9208;SDS011;4639;48.862;9.188;2023-05-21T12:44:34;5.72;;;5.22;;
9208;SDS011;4639;48.862;9.188;2023-05-21T12:46:59;6.88;;;5.65;;
9208;SDS011;4639;48.862;9.188;2023-05-21T12:50:00;6.05;;;5.30;;
9208;SDS011;4639;48.862;9.188;2023-05-21T12:52:20;5.93;;;5.38;;
9208;SDS011;4639;48.862;9.188;2023-05-21T12:54:50;6.82;;;5.50;;
9208;SDS011;4639;48.862;9.188;2023-05-21T12:57:17;9.45;;;5.50;;
9208;SDS011;4639;48.862;9.188;2023-05-21T12:59:45;5.78;;;5.15;;
9208;SDS011;4639;48.862;9.188;2023-05-21T13:02:18;8.27;;;5.28;;
9208;SDS011;4639;48.862;9.188;2023-05-21T13:04:55;7.55;;;5.65;;
9208;SDS011;4639;48.862;9.188;2023-05-21T13:07:22;6.30;;;5.18;;
9208;SDS011;4639;48.862;9.188;2023-05-21T13:09:48;6.60;;;5.85;;
9208;SDS011;4639;48.862;9.188;2023-05-21T13:12:17;7.88;;;5.55;;
9208;SDS011;4639;48.862;9.188;2023-05-21T13:14:44;8.48;;;5.90;;
9208;SDS011;4639;48.862;9.188;2023-05-21T13:17:10;5.75;;;5.15;;
9208;SDS011;4639;48.862;9.188;2023-05-21T13:19:35;7.78;;;5.70;;
9208;SDS011;4639;48.862;9.188;2023-05-21T13:22:01;7.30;;;5.43;;
9208;SDS011;4639;48.862;9.188;2023-05-21T13:24:27;6.05;;;5.55;;
9208;SDS011;4639;48.862;9.188;2023-05-21T13:26:53;6.63;;;5.78;;
9208;SDS011;4639;48.862;9.188;2023-05-21T13:29:18;5.90;;;5.35;;
9208;SDS011;4639;48.862;9.188;2023-05-21T13:31:44;6.95;;;5.88;;
9208;SDS011;4639;48.862;9.188;2023-05-21T13:34:10;6.05;;;5.40;;
9208;SDS011;4639;48.862;9.188;2023-05-21T13:36:36;6.22;;;5.38;;
9208;SDS011;4639;48.862;9.188;2023-05-21T13:39:02;9.73;;;5.25;;
9208;SDS011;4639;48.862;9.188;2023-05-21T13:41:28;6.18;;;5.10;;
9208;SDS011;4639;48.862;9.188;2023-05-21T13:43:54;6.65;;;5.35;;
9208;SDS011;4639;48.862;9.188;2023-05-21T13:46:20;6.13;;;5.53;;
9208;SDS011;4639;48.862;9.188;2023-05-21T13:48:45;6.38;;;5.88;;
9208;SDS011;4639;48.862;9.188;2023-05-21T13:51:11;6.15;;;5.63;;
9208;SDS011;4639;48.862;9.188;2023-05-21T13:53:36;5.60;;;5.10;;
9208;SDS011;4639;48.862;9.188;2023-05-21T13:56:02;6.93;;;5.00;;
9208;SDS011;4639;48.862;9.188;2023-05-21T13:58:28;7.35;;;5.07;;
9208;SDS011;4639;48.862;9.188;2023-05-21T14:00:58;5.13;;;4.55;;
9208;SDS011;4639;48.862;9.188;2023-05-21T14:03:27;6.82;;;5.47;;
9208;SDS011;4639;48.862;9.188;2023-05-21T14:05:53;5.45;;;4.78;;
9208;SDS011;4639;48.862;9.188;2023-05-21T14:08:20;5.63;;;4.80;;
9208;SDS011;4639;48.862;9.188;2023-05-21T14:10:47;5.85;;;4.90;;
9208;SDS011;4639;48.862;9.188;2023-05-21T14:13:13;7.53;;;4.60;;
9208;SDS011;4639;48.862;9.188;2023-05-21T14:15:40;5.80;;;4.38;;
9208;SDS011;4639;48.862;9.188;2023-05-21T14:18:06;5.00;;;4.10;;
9208;SDS011;4639;48.862;9.188;2023-05-21T14:20:35;4.95;;;4.45;;
9208;SDS011;4639;48.862;9.188;2023-05-21T14:23:01;8.27;;;5.05;;
9208;SDS011;4639;48.862;9.188;2023-05-21T14:25:27;5.32;;;4.88;;
9208;SDS011;4639;48.862;9.188;2023-05-21T14:27:53;6.13;;;4.30;;
9208;SDS011;4639;48.862;9.188;2023-05-21T14:30:18;7.38;;;5.22;;
9208;SDS011;4639;48.862;9.188;2023-05-21T14:32:44;7.45;;;4.70;;
9208;SDS011;4639;48.862;9.188;2023-05-21T14:35:10;4.55;;;4.15;;
9208;SDS011;4639;48.862;9.188;2023-05-21T14:37:35;4.53;;;4.13;;
9208;SDS011;4639;48.862;9.188;2023-05-21T14:40:01;5.05;;;3.78;;
9208;SDS011;4639;48.862;9.188;2023-05-21T14:42:29;4.57;;;4.03;;
9208;SDS011;4639;48.862;9.188;2023-05-21T14:44:54;4.60;;;3.92;;
9208;SDS011;4639;48.862;9.188;2023-05-21T14:47:20;4.03;;;3.42;;
9208;SDS011;4639;48.862;9.188;2023-05-21T14:49:45;7.13;;;4.03;;
9208;SDS011;4639;48.862;9.188;2023-05-21T14:52:11;5.32;;;4.10;;
9208;SDS011;4639;48.862;9.188;2023-05-21T14:54:37;5.45;;;3.75;;
9208;SDS011;4639;48.862;9.188;2023-05-21T14:57:02;5.07;;;4.03;;
9208;SDS011;4639;48.862;9.188;2023-05-21T14:59:28;4.30;;;3.63;;
9208;SDS011;4639;48.862;9.188;2023-05-21T15:01:53;4.85;;;4.28;;
9208;SDS011;4639;48.862;9.188;2023-05-21T15:04:19;9.82;;;4.88;;
9208;SDS011;4639;48.862;9.188;2023-05-21T15:06:45;5.25;;;4.35;;
9208;SDS011;4639;48.862;9.188;2023-05-21T15:09:10;7.22;;;4.68;;
9208;SDS011;4639;48.862;9.188;2023-05-21T15:11:36;4.50;;;4.07;;
9208;SDS011;4639;48.862;9.188;2023-05-21T15:14:03;4.97;;;3.92;;
9208;SDS011;4639;48.862;9.188;2023-05-21T15:16:29;6.00;;;4.60;;
9208;SDS011;4639;48.862;9.188;2023-05-21T15:18:55;4.93;;;4.53;;